sensor_id;sensor_type;location;lat;lon;timestamp;temperature;humidity
1778;DHT22;886;50.082;8.222;2023-06-10T00:02:26;23.60;80.00
1778;DHT22;886;50.082;8.222;2023-06-10T00:04:54;23.70;80.10
1778;DHT22;886;50.082;8.222;2023-06-10T00:07:22;23.60;80.30
1778;DHT22;886;50.082;8.222;2023-06-10T00:09:49;23.60;80.40
1778;DHT22;886;50.082;8.222;2023-06-10T00:12:17;23.50;80.60
1778;DHT22;886;50.082;8.222;2023-06-10T00:14:45;23.50;80.40
1778;DHT22;886;50.082;8.222;2023-06-10T00:17:13;23.50;80.40
1778;DHT22;886;50.082;8.222;2023-06-10T00:19:41;23.50;80.50
1778;DHT22;886;50.082;8.222;2023-06-10T00:22:10;23.50;80.50
1778;DHT22;886;50.082;8.222;2023-06-10T00:24:38;23.50;80.50
1778;DHT22;886;50.082;8.222;2023-06-10T00:27:06;23.40;80.50
1778;DHT22;886;50.082;8.222;2023-06-10T00:29:33;23.40;80.40
1778;DHT22;886;50.082;8.222;2023-06-10T00:32:01;23.40;80.20
1778;DHT22;886;50.082;8.222;2023-06-10T00:34:30;23.40;80.30
1778;DHT22;886;50.082;8.222;2023-06-10T00:36:59;23.40;80.30
1778;DHT22;886;50.082;8.222;2023-06-10T00:39:26;23.40;80.20
1778;DHT22;886;50.082;8.222;2023-06-10T00:41:54;23.30;80.20
1778;DHT22;886;50.082;8.222;2023-06-10T00:44:21;23.30;80.20
1778;DHT22;886;50.082;8.222;2023-06-10T00:46:48;23.30;80.40
1778;DHT22;886;50.082;8.222;2023-06-10T00:49:18;23.30;79.80
1778;DHT22;886;50.082;8.222;2023-06-10T00:51:47;23.30;79.80
1778;DHT22;886;50.082;8.222;2023-06-10T00:54:15;23.30;79.80
1778;DHT22;886;50.082;8.222;2023-06-10T00:56:42;23.30;79.80
1778;DHT22;886;50.082;8.222;2023-06-10T00:59:10;23.30;79.60
1778;DHT22;886;50.082;8.222;2023-06-10T01:01:37;23.30;79.30
1778;DHT22;886;50.082;8.222;2023-06-10T01:04:06;23.30;79.30
1778;DHT22;886;50.082;8.222;2023-06-10T01:06:47;23.20;80.70
1778;DHT22;886;50.082;8.222;2023-06-10T01:09:23;23.10;81.10
1778;DHT22;886;50.082;8.222;2023-06-10T01:12:00;23.00;79.70
1778;DHT22;886;50.082;8.222;2023-06-10T01:14:30;23.10;79.60
1778;DHT22;886;50.082;8.222;2023-06-10T01:16:58;23.10;80.70
1778;DHT22;886;50.082;8.222;2023-06-10T01:19:27;23.10;79.10
1778;DHT22;886;50.082;8.222;2023-06-10T01:21:56;23.10;79.30
1778;DHT22;886;50.082;8.222;2023-06-10T01:24:27;23.10;78.80
1778;DHT22;886;50.082;8.222;2023-06-10T01:26:59;23.10;79.00
1778;DHT22;886;50.082;8.222;2023-06-10T01:29:32;23.00;80.90
1778;DHT22;886;50.082;8.222;2023-06-10T01:32:09;22.90;81.50
1778;DHT22;886;50.082;8.222;2023-06-10T01:34:42;22.90;80.90
1778;DHT22;886;50.082;8.222;2023-06-10T01:37:17;22.80;81.20
1778;DHT22;886;50.082;8.222;2023-06-10T01:39:46;22.70;81.60
1778;DHT22;886;50.082;8.222;2023-06-10T01:42:15;22.80;80.70
1778;DHT22;886;50.082;8.222;2023-06-10T01:44:42;22.70;80.60
1778;DHT22;886;50.082;8.222;2023-06-10T01:47:10;22.60;81.70
1778;DHT22;886;50.082;8.222;2023-06-10T01:49:37;22.60;82.30
1778;DHT22;886;50.082;8.222;2023-06-10T01:52:05;22.50;82.50
1778;DHT22;886;50.082;8.222;2023-06-10T01:54:34;22.40;82.70
1778;DHT22;886;50.082;8.222;2023-06-10T01:57:02;22.40;83.10
1778;DHT22;886;50.082;8.222;2023-06-10T01:59:29;22.30;83.50
1778;DHT22;886;50.082;8.222;2023-06-10T02:01:57;22.20;84.30
1778;DHT22;886;50.082;8.222;2023-06-10T02:04:24;22.20;84.80
1778;DHT22;886;50.082;8.222;2023-06-10T02:06:51;22.10;84.90
1778;DHT22;886;50.082;8.222;2023-06-10T02:09:20;22.00;85.30
1778;DHT22;886;50.082;8.222;2023-06-10T02:12:07;21.90;85.50
1778;DHT22;886;50.082;8.222;2023-06-10T02:14:35;21.80;85.60
1778;DHT22;886;50.082;8.222;2023-06-10T02:17:03;21.80;85.70
1778;DHT22;886;50.082;8.222;2023-06-10T02:19:31;21.70;86.30
1778;DHT22;886;50.082;8.222;2023-06-10T02:21:58;21.60;86.50
1778;DHT22;886;50.082;8.222;2023-06-10T02:24:26;21.60;86.60
1778;DHT22;886;50.082;8.222;2023-06-10T02:26:53;21.60;86.80
1778;DHT22;886;50.082;8.222;2023-06-10T02:29:22;21.50;87.10
1778;DHT22;886;50.082;8.222;2023-06-10T02:31:48;21.60;87.40
1778;DHT22;886;50.082;8.222;2023-06-10T02:34:16;21.50;87.20
1778;DHT22;886;50.082;8.222;2023-06-10T02:36:43;21.40;87.50
1778;DHT22;886;50.082;8.222;2023-06-10T02:39:10;21.40;87.80
1778;DHT22;886;50.082;8.222;2023-06-10T02:41:37;21.30;87.70
1778;DHT22;886;50.082;8.222;2023-06-10T02:44:04;21.30;87.90
1778;DHT22;886;50.082;8.222;2023-06-10T02:46:33;21.40;87.90
1778;DHT22;886;50.082;8.222;2023-06-10T02:49:01;21.30;87.90
1778;DHT22;886;50.082;8.222;2023-06-10T02:51:28;21.10;88.30
1778;DHT22;886;50.082;8.222;2023-06-10T02:53:55;21.00;89.00
1778;DHT22;886;50.082;8.222;2023-06-10T02:56:22;20.90;88.80
1778;DHT22;886;50.082;8.222;2023-06-10T02:58:50;20.90;88.80
1778;DHT22;886;50.082;8.222;2023-06-10T03:01:18;20.80;88.60
1778;DHT22;886;50.082;8.222;2023-06-10T03:03:47;20.70;89.00
1778;DHT22;886;50.082;8.222;2023-06-10T03:06:14;20.80;89.10
1778;DHT22;886;50.082;8.222;2023-06-10T03:08:42;20.80;88.70
1778;DHT22;886;50.082;8.222;2023-06-10T03:11:09;20.70;88.80
1778;DHT22;886;50.082;8.222;2023-06-10T03:13:38;20.70;88.60
1778;DHT22;886;50.082;8.222;2023-06-10T03:16:06;20.70;88.80
1778;DHT22;886;50.082;8.222;2023-06-10T03:18:34;20.50;88.80
1778;DHT22;886;50.082;8.222;2023-06-10T03:21:02;20.40;89.40
1778;DHT22;886;50.082;8.222;2023-06-10T03:23:30;20.30;89.40
1778;DHT22;886;50.082;8.222;2023-06-10T03:25:58;20.20;89.50
1778;DHT22;886;50.082;8.222;2023-06-10T03:28:25;20.10;89.80
1778;DHT22;886;50.082;8.222;2023-06-10T03:30:53;20.10;90.00
1778;DHT22;886;50.082;8.222;2023-06-10T03:33:19;20.20;90.00
1778;DHT22;886;50.082;8.222;2023-06-10T03:35:47;20.20;89.60
1778;DHT22;886;50.082;8.222;2023-06-10T03:38:15;20.10;89.90
1778;DHT22;886;50.082;8.222;2023-06-10T03:40:43;20.10;90.10
1778;DHT22;886;50.082;8.222;2023-06-10T03:43:10;20.10;89.90
1778;DHT22;886;50.082;8.222;2023-06-10T03:45:38;20.10;90.10
1778;DHT22;886;50.082;8.222;2023-06-10T03:48:05;20.10;90.00
1778;DHT22;886;50.082;8.222;2023-06-10T03:50:33;20.10;90.10
1778;DHT22;886;50.082;8.222;2023-06-10T03:53:00;20.20;90.00
1778;DHT22;886;50.082;8.222;2023-06-10T03:55:29;20.20;89.70
1778;DHT22;886;50.082;8.222;2023-06-10T03:57:57;19.90;90.00
1778;DHT22;886;50.082;8.222;2023-06-10T04:00:25;19.80;90.30
1778;DHT22;886;50.082;8.222;2023-06-10T04:02:52;19.90;90.40
1778;DHT22;886;50.082;8.222;2023-06-10T04:05:20;19.90;90.40
1778;DHT22;886;50.082;8.222;2023-06-10T04:07:48;19.80;90.50
1778;DHT22;886;50.082;8.222;2023-06-10T04:10:16;19.80;90.60
1778;DHT22;886;50.082;8.222;2023-06-10T04:12:44;19.70;90.70
1778;DHT22;886;50.082;8.222;2023-06-10T04:15:12;19.80;90.80
1778;DHT22;886;50.082;8.222;2023-06-10T04:17:39;19.80;90.80
1778;DHT22;886;50.082;8.222;2023-06-10T04:20:08;19.90;90.90
1778;DHT22;886;50.082;8.222;2023-06-10T04:22:36;19.90;90.90
1778;DHT22;886;50.082;8.222;2023-06-10T04:25:04;19.90;91.00
1778;DHT22;886;50.082;8.222;2023-06-10T04:27:32;19.80;91.20
1778;DHT22;886;50.082;8.222;2023-06-10T04:30:01;19.90;91.20
1778;DHT22;886;50.082;8.222;2023-06-10T04:32:28;20.00;91.10
1778;DHT22;886;50.082;8.222;2023-06-10T04:34:56;20.00;91.20
1778;DHT22;886;50.082;8.222;2023-06-10T04:37:23;20.00;91.30
1778;DHT22;886;50.082;8.222;2023-06-10T04:39:51;20.10;91.30
1778;DHT22;886;50.082;8.222;2023-06-10T04:42:18;20.10;91.30
1778;DHT22;886;50.082;8.222;2023-06-10T04:44:45;20.10;91.40
1778;DHT22;886;50.082;8.222;2023-06-10T04:47:13;20.10;91.60
1778;DHT22;886;50.082;8.222;2023-06-10T04:49:40;20.20;91.60
1778;DHT22;886;50.082;8.222;2023-06-10T04:52:07;20.20;91.60
1778;DHT22;886;50.082;8.222;2023-06-10T04:54:34;20.20;91.60
1778;DHT22;886;50.082;8.222;2023-06-10T04:57:02;20.30;91.80
1778;DHT22;886;50.082;8.222;2023-06-10T04:59:29;20.30;91.80
1778;DHT22;886;50.082;8.222;2023-06-10T05:01:56;20.40;91.80
1778;DHT22;886;50.082;8.222;2023-06-10T05:04:25;20.40;91.90
1778;DHT22;886;50.082;8.222;2023-06-10T05:06:52;20.40;92.10
1778;DHT22;886;50.082;8.222;2023-06-10T05:09:20;20.40;92.40
1778;DHT22;886;50.082;8.222;2023-06-10T05:11:47;20.40;92.60
1778;DHT22;886;50.082;8.222;2023-06-10T05:14:15;20.50;92.60
1778;DHT22;886;50.082;8.222;2023-06-10T05:16:45;20.50;92.60
1778;DHT22;886;50.082;8.222;2023-06-10T05:19:13;20.60;92.60
1778;DHT22;886;50.082;8.222;2023-06-10T05:21:41;20.70;92.60
1778;DHT22;886;50.082;8.222;2023-06-10T05:24:09;20.80;92.40
1778;DHT22;886;50.082;8.222;2023-06-10T05:26:36;20.80;92.30
1778;DHT22;886;50.082;8.222;2023-06-10T05:29:05;20.90;92.30
1778;DHT22;886;50.082;8.222;2023-06-10T05:31:33;21.00;92.50
1778;DHT22;886;50.082;8.222;2023-06-10T05:34:00;21.00;92.40
1778;DHT22;886;50.082;8.222;2023-06-10T05:36:27;21.10;92.80
1778;DHT22;886;50.082;8.222;2023-06-10T05:38:56;21.10;92.90
1778;DHT22;886;50.082;8.222;2023-06-10T05:41:23;21.20;92.80
1778;DHT22;886;50.082;8.222;2023-06-10T05:43:50;21.20;92.20
1778;DHT22;886;50.082;8.222;2023-06-10T05:46:17;21.40;92.10
1778;DHT22;886;50.082;8.222;2023-06-10T05:48:45;21.50;92.50
1778;DHT22;886;50.082;8.222;2023-06-10T05:51:12;21.50;91.50
1778;DHT22;886;50.082;8.222;2023-06-10T05:53:39;21.60;92.20
1778;DHT22;886;50.082;8.222;2023-06-10T05:56:08;21.60;92.40
1778;DHT22;886;50.082;8.222;2023-06-10T05:58:35;21.70;91.90
1778;DHT22;886;50.082;8.222;2023-06-10T06:01:02;21.80;91.50
1778;DHT22;886;50.082;8.222;2023-06-10T06:03:30;21.80;90.70
1778;DHT22;886;50.082;8.222;2023-06-10T06:05:57;22.00;90.60
1778;DHT22;886;50.082;8.222;2023-06-10T06:08:25;22.20;90.40
1778;DHT22;886;50.082;8.222;2023-06-10T06:10:52;22.50;89.90
1778;DHT22;886;50.082;8.222;2023-06-10T06:13:21;22.70;88.20
1778;DHT22;886;50.082;8.222;2023-06-10T06:15:48;23.00;88.70
1778;DHT22;886;50.082;8.222;2023-06-10T06:18:15;23.50;85.90
1778;DHT22;886;50.082;8.222;2023-06-10T06:20:42;24.00;84.40
1778;DHT22;886;50.082;8.222;2023-06-10T06:23:09;24.40;83.70
1778;DHT22;886;50.082;8.222;2023-06-10T06:25:37;24.90;82.40
1778;DHT22;886;50.082;8.222;2023-06-10T06:28:06;25.30;78.60
1778;DHT22;886;50.082;8.222;2023-06-10T06:30:35;25.50;78.60
1778;DHT22;886;50.082;8.222;2023-06-10T06:33:02;25.50;77.90
1778;DHT22;886;50.082;8.222;2023-06-10T06:35:31;25.50;77.20
1778;DHT22;886;50.082;8.222;2023-06-10T06:37:59;25.50;77.40
1778;DHT22;886;50.082;8.222;2023-06-10T06:40:27;25.40;77.30
1778;DHT22;886;50.082;8.222;2023-06-10T06:42:54;25.30;77.50
1778;DHT22;886;50.082;8.222;2023-06-10T06:45:22;25.20;76.90
1778;DHT22;886;50.082;8.222;2023-06-10T06:47:51;25.10;77.40
1778;DHT22;886;50.082;8.222;2023-06-10T06:50:18;25.10;77.30
1778;DHT22;886;50.082;8.222;2023-06-10T06:52:45;25.20;77.20
1778;DHT22;886;50.082;8.222;2023-06-10T06:55:12;25.20;77.30
1778;DHT22;886;50.082;8.222;2023-06-10T06:57:40;25.20;77.30
1778;DHT22;886;50.082;8.222;2023-06-10T07:00:08;25.30;77.80
1778;DHT22;886;50.082;8.222;2023-06-10T07:02:36;25.50;76.80
1778;DHT22;886;50.082;8.222;2023-06-10T07:05:05;25.80;76.40
1778;DHT22;886;50.082;8.222;2023-06-10T07:07:34;26.40;75.40
1778;DHT22;886;50.082;8.222;2023-06-10T07:10:01;26.80;74.70
1778;DHT22;886;50.082;8.222;2023-06-10T07:12:28;27.20;74.90
1778;DHT22;886;50.082;8.222;2023-06-10T07:14:55;27.50;73.80
1778;DHT22;886;50.082;8.222;2023-06-10T07:17:22;27.90;73.50
1778;DHT22;886;50.082;8.222;2023-06-10T07:19:49;28.40;72.40
1778;DHT22;886;50.082;8.222;2023-06-10T07:22:19;28.60;71.60
1778;DHT22;886;50.082;8.222;2023-06-10T07:24:47;29.00;71.00
1778;DHT22;886;50.082;8.222;2023-06-10T07:27:14;28.90;70.80
1778;DHT22;886;50.082;8.222;2023-06-10T07:29:42;28.80;71.00
1778;DHT22;886;50.082;8.222;2023-06-10T07:32:09;28.70;71.50
1778;DHT22;886;50.082;8.222;2023-06-10T07:34:36;28.60;71.40
1778;DHT22;886;50.082;8.222;2023-06-10T07:37:03;28.30;72.20
1778;DHT22;886;50.082;8.222;2023-06-10T07:39:32;28.10;73.10
1778;DHT22;886;50.082;8.222;2023-06-10T07:41:59;27.70;74.00
1778;DHT22;886;50.082;8.222;2023-06-10T07:44:27;27.30;74.10
1778;DHT22;886;50.082;8.222;2023-06-10T07:46:54;27.10;73.90
1778;DHT22;886;50.082;8.222;2023-06-10T07:49:21;27.10;73.90
1778;DHT22;886;50.082;8.222;2023-06-10T07:51:49;26.90;74.50
1778;DHT22;886;50.082;8.222;2023-06-10T07:54:16;26.80;74.70
1778;DHT22;886;50.082;8.222;2023-06-10T07:56:45;26.70;74.30
1778;DHT22;886;50.082;8.222;2023-06-10T07:59:13;26.70;74.20
1778;DHT22;886;50.082;8.222;2023-06-10T08:01:40;26.70;74.60
1778;DHT22;886;50.082;8.222;2023-06-10T08:04:09;26.60;74.80
1778;DHT22;886;50.082;8.222;2023-06-10T08:06:37;26.60;74.90
1778;DHT22;886;50.082;8.222;2023-06-10T08:09:04;26.60;73.70
1778;DHT22;886;50.082;8.222;2023-06-10T08:11:31;26.70;73.70
1778;DHT22;886;50.082;8.222;2023-06-10T08:14:00;26.80;74.00
1778;DHT22;886;50.082;8.222;2023-06-10T08:16:27;26.90;74.00
1778;DHT22;886;50.082;8.222;2023-06-10T08:18:54;27.10;73.80
1778;DHT22;886;50.082;8.222;2023-06-10T08:21:21;27.40;73.70
1778;DHT22;886;50.082;8.222;2023-06-10T08:23:52;27.60;72.50
1778;DHT22;886;50.082;8.222;2023-06-10T08:26:20;27.90;72.30
1778;DHT22;886;50.082;8.222;2023-06-10T08:28:47;28.00;72.70
1778;DHT22;886;50.082;8.222;2023-06-10T08:31:16;28.00;71.70
1778;DHT22;886;50.082;8.222;2023-06-10T08:33:44;28.00;69.90
1778;DHT22;886;50.082;8.222;2023-06-10T08:36:11;28.30;69.60
1778;DHT22;886;50.082;8.222;2023-06-10T08:38:38;28.30;69.60
1778;DHT22;886;50.082;8.222;2023-06-10T08:41:06;28.10;70.10
1778;DHT22;886;50.082;8.222;2023-06-10T08:43:36;27.90;71.10
1778;DHT22;886;50.082;8.222;2023-06-10T08:46:09;27.90;71.30
1778;DHT22;886;50.082;8.222;2023-06-10T08:48:42;27.80;71.90
1778;DHT22;886;50.082;8.222;2023-06-10T08:51:11;27.70;71.50
1778;DHT22;886;50.082;8.222;2023-06-10T08:53:46;27.80;70.80
1778;DHT22;886;50.082;8.222;2023-06-10T08:56:16;27.70;71.30
1778;DHT22;886;50.082;8.222;2023-06-10T08:58:45;27.60;70.50
1778;DHT22;886;50.082;8.222;2023-06-10T09:01:12;27.60;70.10
1778;DHT22;886;50.082;8.222;2023-06-10T09:03:41;27.60;70.20
1778;DHT22;886;50.082;8.222;2023-06-10T09:06:09;27.60;70.80
1778;DHT22;886;50.082;8.222;2023-06-10T09:08:37;27.60;71.20
1778;DHT22;886;50.082;8.222;2023-06-10T09:11:05;27.70;71.70
1778;DHT22;886;50.082;8.222;2023-06-10T09:13:33;27.90;69.70
1778;DHT22;886;50.082;8.222;2023-06-10T09:16:00;28.10;69.30
1778;DHT22;886;50.082;8.222;2023-06-10T09:18:29;28.30;69.00
1778;DHT22;886;50.082;8.222;2023-06-10T09:20:58;28.60;68.30
1778;DHT22;886;50.082;8.222;2023-06-10T09:23:25;28.90;68.00
1778;DHT22;886;50.082;8.222;2023-06-10T09:25:56;29.00;67.80
1778;DHT22;886;50.082;8.222;2023-06-10T09:28:24;29.20;67.60
1778;DHT22;886;50.082;8.222;2023-06-10T09:31:03;29.40;67.20
1778;DHT22;886;50.082;8.222;2023-06-10T09:33:30;29.50;67.10
1778;DHT22;886;50.082;8.222;2023-06-10T09:36:01;29.50;67.30
1778;DHT22;886;50.082;8.222;2023-06-10T09:38:30;29.20;67.30
1778;DHT22;886;50.082;8.222;2023-06-10T09:41:02;29.00;68.00
1778;DHT22;886;50.082;8.222;2023-06-10T09:43:40;28.90;68.70
1778;DHT22;886;50.082;8.222;2023-06-10T09:46:14;28.70;69.00
1778;DHT22;886;50.082;8.222;2023-06-10T09:48:44;28.50;69.20
1778;DHT22;886;50.082;8.222;2023-06-10T09:51:14;28.50;68.60
1778;DHT22;886;50.082;8.222;2023-06-10T09:53:41;28.40;68.90
1778;DHT22;886;50.082;8.222;2023-06-10T09:56:09;28.30;69.40
1778;DHT22;886;50.082;8.222;2023-06-10T09:58:37;28.20;69.70
1778;DHT22;886;50.082;8.222;2023-06-10T10:01:06;28.20;70.00
1778;DHT22;886;50.082;8.222;2023-06-10T10:03:43;28.20;69.90
1778;DHT22;886;50.082;8.222;2023-06-10T10:06:16;28.20;69.50
1778;DHT22;886;50.082;8.222;2023-06-10T10:08:47;28.20;69.50
1778;DHT22;886;50.082;8.222;2023-06-10T10:11:17;28.20;69.40
1778;DHT22;886;50.082;8.222;2023-06-10T10:13:47;28.20;70.20
1778;DHT22;886;50.082;8.222;2023-06-10T10:16:17;28.20;70.60
1778;DHT22;886;50.082;8.222;2023-06-10T10:18:51;28.10;70.50
1778;DHT22;886;50.082;8.222;2023-06-10T10:21:23;28.10;70.50
1778;DHT22;886;50.082;8.222;2023-06-10T10:24:00;28.20;70.40
1778;DHT22;886;50.082;8.222;2023-06-10T10:26:31;28.20;69.50
1778;DHT22;886;50.082;8.222;2023-06-10T10:29:07;28.20;69.60
1778;DHT22;886;50.082;8.222;2023-06-10T10:31:38;28.20;69.70
1778;DHT22;886;50.082;8.222;2023-06-10T10:34:07;28.10;69.80
1778;DHT22;886;50.082;8.222;2023-06-10T10:36:38;28.00;70.60
1778;DHT22;886;50.082;8.222;2023-06-10T10:39:05;28.00;70.60
1778;DHT22;886;50.082;8.222;2023-06-10T10:41:33;28.00;70.60
1778;DHT22;886;50.082;8.222;2023-06-10T10:44:02;28.10;69.90
1778;DHT22;886;50.082;8.222;2023-06-10T10:46:41;28.10;68.60
1778;DHT22;886;50.082;8.222;2023-06-10T10:49:12;28.20;68.60
1778;DHT22;886;50.082;8.222;2023-06-10T10:51:56;28.10;69.60
1778;DHT22;886;50.082;8.222;2023-06-10T10:54:31;28.10;70.50
1778;DHT22;886;50.082;8.222;2023-06-10T10:57:15;28.10;70.90
1778;DHT22;886;50.082;8.222;2023-06-10T10:59:55;28.10;70.50
1778;DHT22;886;50.082;8.222;2023-06-10T11:02:35;28.10;70.50
1778;DHT22;886;50.082;8.222;2023-06-10T11:05:08;28.20;69.00
1778;DHT22;886;50.082;8.222;2023-06-10T11:07:38;28.20;68.50
1778;DHT22;886;50.082;8.222;2023-06-10T11:10:09;28.20;67.80
1778;DHT22;886;50.082;8.222;2023-06-10T11:13:05;28.20;68.10
1778;DHT22;886;50.082;8.222;2023-06-10T11:15:39;28.30;69.20
1778;DHT22;886;50.082;8.222;2023-06-10T11:20:56;28.20;68.50
1778;DHT22;886;50.082;8.222;2023-06-10T11:23:39;28.20;68.30
1778;DHT22;886;50.082;8.222;2023-06-10T11:26:18;28.30;68.20
1778;DHT22;886;50.082;8.222;2023-06-10T11:29:08;28.30;68.10
1778;DHT22;886;50.082;8.222;2023-06-10T11:31:43;28.40;68.20
1778;DHT22;886;50.082;8.222;2023-06-10T11:34:13;28.40;68.00
1778;DHT22;886;50.082;8.222;2023-06-10T11:36:42;28.30;68.10
1778;DHT22;886;50.082;8.222;2023-06-10T11:39:13;28.30;68.00
1778;DHT22;886;50.082;8.222;2023-06-10T11:41:41;28.30;68.20
1778;DHT22;886;50.082;8.222;2023-06-10T11:44:09;28.30;68.20
1778;DHT22;886;50.082;8.222;2023-06-10T11:46:41;28.30;67.50
1778;DHT22;886;50.082;8.222;2023-06-10T11:49:12;28.30;67.50
1778;DHT22;886;50.082;8.222;2023-06-10T11:51:40;28.30;67.60
1778;DHT22;886;50.082;8.222;2023-06-10T11:54:17;28.30;67.50
1778;DHT22;886;50.082;8.222;2023-06-10T11:56:45;28.30;67.70
1778;DHT22;886;50.082;8.222;2023-06-10T11:59:12;28.30;68.00
1778;DHT22;886;50.082;8.222;2023-06-10T12:01:43;28.40;67.20
1778;DHT22;886;50.082;8.222;2023-06-10T12:04:13;28.40;67.30
1778;DHT22;886;50.082;8.222;2023-06-10T12:06:43;28.40;67.70
1778;DHT22;886;50.082;8.222;2023-06-10T12:09:18;28.50;67.10
1778;DHT22;886;50.082;8.222;2023-06-10T12:11:53;28.50;66.90
1778;DHT22;886;50.082;8.222;2023-06-10T12:14:50;28.40;67.00
1778;DHT22;886;50.082;8.222;2023-06-10T12:17:37;28.30;66.80
1778;DHT22;886;50.082;8.222;2023-06-10T12:20:06;28.30;66.60
1778;DHT22;886;50.082;8.222;2023-06-10T12:22:49;28.40;66.00
1778;DHT22;886;50.082;8.222;2023-06-10T12:25:24;28.40;65.80
1778;DHT22;886;50.082;8.222;2023-06-10T12:27:54;28.40;64.90
1778;DHT22;886;50.082;8.222;2023-06-10T12:30:25;28.30;64.50
1778;DHT22;886;50.082;8.222;2023-06-10T12:32:54;28.30;64.70
1778;DHT22;886;50.082;8.222;2023-06-10T12:35:23;28.40;64.40
1778;DHT22;886;50.082;8.222;2023-06-10T12:37:55;28.40;65.00
1778;DHT22;886;50.082;8.222;2023-06-10T12:40:33;28.50;65.00
1778;DHT22;886;50.082;8.222;2023-06-10T12:43:02;28.50;64.70
1778;DHT22;886;50.082;8.222;2023-06-10T12:45:31;28.60;64.70
1778;DHT22;886;50.082;8.222;2023-06-10T12:48:06;28.60;65.30
1778;DHT22;886;50.082;8.222;2023-06-10T12:50:37;28.70;65.80
1778;DHT22;886;50.082;8.222;2023-06-10T12:53:05;28.80;65.40
1778;DHT22;886;50.082;8.222;2023-06-10T12:55:34;28.80;65.10
1778;DHT22;886;50.082;8.222;2023-06-10T12:58:03;28.90;65.10
1778;DHT22;886;50.082;8.222;2023-06-10T13:00:30;28.90;65.30
1778;DHT22;886;50.082;8.222;2023-06-10T13:03:00;29.00;65.00
1778;DHT22;886;50.082;8.222;2023-06-10T13:05:29;28.90;64.60
1778;DHT22;886;50.082;8.222;2023-06-10T13:07:56;28.80;65.30
1778;DHT22;886;50.082;8.222;2023-06-10T13:10:24;28.80;65.70
1778;DHT22;886;50.082;8.222;2023-06-10T13:12:54;28.90;66.50
1778;DHT22;886;50.082;8.222;2023-06-10T13:15:22;28.90;66.20
1778;DHT22;886;50.082;8.222;2023-06-10T13:17:49;28.90;65.90
1778;DHT22;886;50.082;8.222;2023-06-10T13:20:19;29.00;65.90
1778;DHT22;886;50.082;8.222;2023-06-10T13:22:47;29.00;65.80
1778;DHT22;886;50.082;8.222;2023-06-10T13:25:15;29.00;66.20
1778;DHT22;886;50.082;8.222;2023-06-10T13:27:42;28.90;65.90
1778;DHT22;886;50.082;8.222;2023-06-10T13:30:12;28.90;65.50
1778;DHT22;886;50.082;8.222;2023-06-10T13:32:39;28.70;66.00
1778;DHT22;886;50.082;8.222;2023-06-10T13:35:07;28.60;65.30
1778;DHT22;886;50.082;8.222;2023-06-10T13:37:36;28.60;65.50
1778;DHT22;886;50.082;8.222;2023-06-10T13:40:04;28.50;65.90
1778;DHT22;886;50.082;8.222;2023-06-10T13:42:32;28.60;65.80
1778;DHT22;886;50.082;8.222;2023-06-10T13:45:00;28.60;65.10
1778;DHT22;886;50.082;8.222;2023-06-10T13:47:29;28.60;64.70
1778;DHT22;886;50.082;8.222;2023-06-10T13:49:55;28.70;66.00
1778;DHT22;886;50.082;8.222;2023-06-10T13:52:23;28.70;65.90
1778;DHT22;886;50.082;8.222;2023-06-10T13:54:50;28.80;66.20
1778;DHT22;886;50.082;8.222;2023-06-10T13:57:17;28.80;66.40
1778;DHT22;886;50.082;8.222;2023-06-10T13:59:44;28.80;66.20
1778;DHT22;886;50.082;8.222;2023-06-10T14:02:11;28.70;66.30
1778;DHT22;886;50.082;8.222;2023-06-10T14:04:40;28.70;66.20
1778;DHT22;886;50.082;8.222;2023-06-10T14:07:08;28.80;66.60
1778;DHT22;886;50.082;8.222;2023-06-10T14:09:35;28.80;66.60
1778;DHT22;886;50.082;8.222;2023-06-10T14:12:02;28.90;66.70
1778;DHT22;886;50.082;8.222;2023-06-10T14:14:30;29.00;66.60
1778;DHT22;886;50.082;8.222;2023-06-10T14:16:59;29.00;66.50
1778;DHT22;886;50.082;8.222;2023-06-10T14:19:27;29.00;66.60
1778;DHT22;886;50.082;8.222;2023-06-10T14:21:55;29.00;66.30
1778;DHT22;886;50.082;8.222;2023-06-10T14:24:23;29.10;66.20
1778;DHT22;886;50.082;8.222;2023-06-10T14:26:50;29.10;65.70
1778;DHT22;886;50.082;8.222;2023-06-10T14:29:18;29.10;65.50
1778;DHT22;886;50.082;8.222;2023-06-10T14:31:46;29.00;65.70
1778;DHT22;886;50.082;8.222;2023-06-10T14:34:13;29.00;65.70
1778;DHT22;886;50.082;8.222;2023-06-10T14:36:41;29.00;65.90
1778;DHT22;886;50.082;8.222;2023-06-10T14:39:10;29.00;65.80
1778;DHT22;886;50.082;8.222;2023-06-10T14:41:37;29.00;65.10
1778;DHT22;886;50.082;8.222;2023-06-10T14:44:05;29.00;65.10
1778;DHT22;886;50.082;8.222;2023-06-10T14:46:32;29.00;65.80
1778;DHT22;886;50.082;8.222;2023-06-10T14:49:00;29.10;66.40
1778;DHT22;886;50.082;8.222;2023-06-10T14:51:29;29.10;66.70
1778;DHT22;886;50.082;8.222;2023-06-10T14:53:56;29.00;66.80
1778;DHT22;886;50.082;8.222;2023-06-10T14:56:25;29.00;66.80
1778;DHT22;886;50.082;8.222;2023-06-10T14:58:52;29.00;66.30
1778;DHT22;886;50.082;8.222;2023-06-10T15:01:19;28.90;66.10
1778;DHT22;886;50.082;8.222;2023-06-10T15:03:47;28.80;66.20
1778;DHT22;886;50.082;8.222;2023-06-10T15:06:14;28.80;66.60
1778;DHT22;886;50.082;8.222;2023-06-10T15:08:44;28.80;67.00
1778;DHT22;886;50.082;8.222;2023-06-10T15:11:11;28.80;67.20
1778;DHT22;886;50.082;8.222;2023-06-10T15:13:40;28.80;67.20
1778;DHT22;886;50.082;8.222;2023-06-10T15:16:07;28.90;67.40
1778;DHT22;886;50.082;8.222;2023-06-10T15:18:35;28.90;67.20
1778;DHT22;886;50.082;8.222;2023-06-10T15:21:02;28.90;66.40
1778;DHT22;886;50.082;8.222;2023-06-10T15:23:47;28.90;66.00
1778;DHT22;886;50.082;8.222;2023-06-10T15:26:15;28.90;65.30
1778;DHT22;886;50.082;8.222;2023-06-10T15:28:43;28.80;65.00
1778;DHT22;886;50.082;8.222;2023-06-10T15:31:11;28.80;65.20
1778;DHT22;886;50.082;8.222;2023-06-10T15:33:38;28.70;65.50
1778;DHT22;886;50.082;8.222;2023-06-10T15:36:05;28.70;66.10
1778;DHT22;886;50.082;8.222;2023-06-10T15:38:33;28.70;66.60
1778;DHT22;886;50.082;8.222;2023-06-10T15:41:00;28.80;66.60
1778;DHT22;886;50.082;8.222;2023-06-10T15:43:28;28.80;65.90
1778;DHT22;886;50.082;8.222;2023-06-10T15:45:56;28.80;66.30
1778;DHT22;886;50.082;8.222;2023-06-10T15:48:23;28.80;65.00
1778;DHT22;886;50.082;8.222;2023-06-10T15:50:51;28.90;65.90
1778;DHT22;886;50.082;8.222;2023-06-10T15:53:18;28.90;66.80
1778;DHT22;886;50.082;8.222;2023-06-10T15:55:45;28.90;65.80
1778;DHT22;886;50.082;8.222;2023-06-10T15:58:13;28.90;65.10
1778;DHT22;886;50.082;8.222;2023-06-10T16:00:40;28.90;65.20
1778;DHT22;886;50.082;8.222;2023-06-10T16:03:08;28.80;65.10
1778;DHT22;886;50.082;8.222;2023-06-10T16:05:36;28.80;65.20
1778;DHT22;886;50.082;8.222;2023-06-10T16:08:04;28.70;65.30
1778;DHT22;886;50.082;8.222;2023-06-10T16:10:31;28.70;65.30
1778;DHT22;886;50.082;8.222;2023-06-10T16:12:58;28.80;66.00
1778;DHT22;886;50.082;8.222;2023-06-10T16:15:26;28.70;66.40
1778;DHT22;886;50.082;8.222;2023-06-10T16:17:53;28.70;66.70
1778;DHT22;886;50.082;8.222;2023-06-10T16:20:23;28.80;66.60
1778;DHT22;886;50.082;8.222;2023-06-10T16:22:50;28.80;65.40
1778;DHT22;886;50.082;8.222;2023-06-10T16:25:17;28.80;65.30
1778;DHT22;886;50.082;8.222;2023-06-10T16:27:45;28.80;64.80
1778;DHT22;886;50.082;8.222;2023-06-10T16:30:13;28.80;65.00
1778;DHT22;886;50.082;8.222;2023-06-10T16:32:41;28.80;65.30